sensor_id;sensor_type;location;lat;lon;timestamp;noise_LAeq;noise_LA_min;noise_LA_max;noise_LA01;noise_LA95
4048;Laerm;2038;51.728;6.674;2023-08-08T00:00:48;38.92;33.90;42.03;;
4048;Laerm;2038;51.728;6.674;2023-08-08T00:03:14;40.37;35.04;45.57;;
4048;Laerm;2038;51.728;6.674;2023-08-08T00:05:40;40.87;36.20;50.01;;
4048;Laerm;2038;51.728;6.674;2023-08-08T00:08:06;40.01;36.69;43.39;;
4048;Laerm;2038;51.728;6.674;2023-08-08T00:10:33;39.77;36.20;43.63;;
4048;Laerm;2038;51.728;6.674;2023-08-08T00:12:59;41.48;36.91;51.22;;
4048;Laerm;2038;51.728;6.674;2023-08-08T00:15:25;39.76;35.36;43.72;;
4048;Laerm;2038;51.728;6.674;2023-08-08T00:17:52;39.28;35.66;41.68;;
4048;Laerm;2038;51.728;6.674;2023-08-08T00:20:18;39.39;35.94;43.29;;
4048;Laerm;2038;51.728;6.674;2023-08-08T00:22:44;39.14;35.66;42.59;;
4048;Laerm;2038;51.728;6.674;2023-08-08T00:25:10;39.27;35.66;43.24;;
4048;Laerm;2038;51.728;6.674;2023-08-08T00:27:37;39.19;35.94;43.63;;
4048;Laerm;2038;51.728;6.674;2023-08-08T00:30:09;39.02;34.69;41.41;;
4048;Laerm;2038;51.728;6.674;2023-08-08T00:32:35;39.13;35.04;43.49;;
4048;Laerm;2038;51.728;6.674;2023-08-08T00:35:01;43.92;35.04;60.51;;
4048;Laerm;2038;51.728;6.674;2023-08-08T00:37:27;39.53;34.31;42.88;;
4048;Laerm;2038;51.728;6.674;2023-08-08T00:39:53;39.36;35.36;42.41;;
4048;Laerm;2038;51.728;6.674;2023-08-08T00:42:20;39.60;35.66;43.64;;
4048;Laerm;2038;51.728;6.674;2023-08-08T00:44:46;39.21;35.66;43.14;;
4048;Laerm;2038;51.728;6.674;2023-08-08T00:47:12;40.60;35.04;55.39;;
4048;Laerm;2038;51.728;6.674;2023-08-08T00:49:39;39.16;33.90;42.65;;
4048;Laerm;2038;51.728;6.674;2023-08-08T00:52:07;39.69;36.45;42.82;;
4048;Laerm;2038;51.728;6.674;2023-08-08T00:54:33;39.53;35.94;44.51;;
4048;Laerm;2038;51.728;6.674;2023-08-08T00:57:00;40.20;36.20;50.08;;
4048;Laerm;2038;51.728;6.674;2023-08-08T00:59:27;40.00;36.69;43.94;;
4048;Laerm;2038;51.728;6.674;2023-08-08T01:01:53;39.16;35.94;43.54;;
4048;Laerm;2038;51.728;6.674;2023-08-08T01:04:19;38.98;35.66;42.65;;
4048;Laerm;2038;51.728;6.674;2023-08-08T01:07:25;39.47;36.20;42.88;;
4048;Laerm;2038;51.728;6.674;2023-08-08T01:10:12;39.49;35.36;42.88;;
4048;Laerm;2038;51.728;6.674;2023-08-08T01:12:53;39.65;35.36;42.82;;
4048;Laerm;2038;51.728;6.674;2023-08-08T01:15:22;39.67;34.31;52.97;;
4048;Laerm;2038;51.728;6.674;2023-08-08T01:17:50;46.79;36.45;63.20;;
4048;Laerm;2038;51.728;6.674;2023-08-08T01:20:18;39.47;35.66;42.88;;
4048;Laerm;2038;51.728;6.674;2023-08-08T01:23:18;44.12;35.66;60.76;;
4048;Laerm;2038;51.728;6.674;2023-08-08T01:25:47;41.71;35.66;55.92;;
4048;Laerm;2038;51.728;6.674;2023-08-08T01:28:14;40.44;36.20;45.39;;
4048;Laerm;2038;51.728;6.674;2023-08-08T01:30:41;40.57;36.91;43.90;;
4048;Laerm;2038;51.728;6.674;2023-08-08T01:33:08;40.29;34.31;44.39;;
4048;Laerm;2038;51.728;6.674;2023-08-08T01:35:38;40.50;37.12;43.34;;
4048;Laerm;2038;51.728;6.674;2023-08-08T01:38:26;39.57;35.01;42.76;;
4048;Laerm;2038;51.728;6.674;2023-08-08T01:40:57;39.24;35.04;42.88;;
4048;Laerm;2038;51.728;6.674;2023-08-08T01:43:24;40.43;35.66;52.64;;
4048;Laerm;2038;51.728;6.674;2023-08-08T01:45:52;43.26;34.69;58.79;;
4048;Laerm;2038;51.728;6.674;2023-08-08T01:48:18;39.59;34.69;43.99;;
4048;Laerm;2038;51.728;6.674;2023-08-08T01:50:44;46.46;35.36;63.72;;
4048;Laerm;2038;51.728;6.674;2023-08-08T01:53:11;39.12;35.01;43.09;;
4048;Laerm;2038;51.728;6.674;2023-08-08T01:55:38;39.29;35.94;42.88;;
4048;Laerm;2038;51.728;6.674;2023-08-08T01:58:04;39.23;35.04;42.29;;
4048;Laerm;2038;51.728;6.674;2023-08-08T02:00:31;39.44;34.69;43.72;;
4048;Laerm;2038;51.728;6.674;2023-08-08T02:02:57;39.08;34.69;42.76;;
4048;Laerm;2038;51.728;6.674;2023-08-08T02:05:24;39.19;33.44;42.09;;
4048;Laerm;2038;51.728;6.674;2023-08-08T02:07:50;39.37;35.94;44.39;;
4048;Laerm;2038;51.728;6.674;2023-08-08T02:10:16;39.32;36.20;41.75;;
4048;Laerm;2038;51.728;6.674;2023-08-08T02:12:43;39.50;36.10;42.29;;
4048;Laerm;2038;51.728;6.674;2023-08-08T02:15:09;39.65;35.36;42.09;;
4048;Laerm;2038;51.728;6.674;2023-08-08T02:17:37;39.32;34.69;42.41;;
4048;Laerm;2038;51.728;6.674;2023-08-08T02:20:06;39.38;35.36;42.09;;
4048;Laerm;2038;51.728;6.674;2023-08-08T02:22:33;39.35;35.94;41.89;;
4048;Laerm;2038;51.728;6.674;2023-08-08T02:24:59;43.36;35.66;61.57;;
4048;Laerm;2038;51.728;6.674;2023-08-08T02:27:25;39.53;35.36;41.96;;
4048;Laerm;2038;51.728;6.674;2023-08-08T02:29:51;42.19;36.45;55.40;;
4048;Laerm;2038;51.728;6.674;2023-08-08T02:32:18;42.60;35.66;58.60;;
4048;Laerm;2038;51.728;6.674;2023-08-08T02:34:44;39.37;35.66;41.68;;
4048;Laerm;2038;51.728;6.674;2023-08-08T02:37:10;45.71;36.69;61.81;;
4048;Laerm;2038;51.728;6.674;2023-08-08T02:39:36;39.45;35.04;42.53;;
4048;Laerm;2038;51.728;6.674;2023-08-08T02:42:03;40.93;34.69;54.94;;
4048;Laerm;2038;51.728;6.674;2023-08-08T02:44:29;42.13;35.36;59.19;;
4048;Laerm;2038;51.728;6.674;2023-08-08T02:46:55;39.59;36.45;43.29;;
4048;Laerm;2038;51.728;6.674;2023-08-08T02:49:21;43.55;35.66;58.16;;
4048;Laerm;2038;51.728;6.674;2023-08-08T02:51:48;43.33;35.94;59.97;;
4048;Laerm;2038;51.728;6.674;2023-08-08T02:54:14;46.89;37.52;63.71;;
4048;Laerm;2038;51.728;6.674;2023-08-08T02:56:40;45.92;36.20;61.00;;
4048;Laerm;2038;51.728;6.674;2023-08-08T02:59:06;42.20;35.36;54.71;;
4048;Laerm;2038;51.728;6.674;2023-08-08T03:01:33;51.76;35.94;73.70;;
4048;Laerm;2038;51.728;6.674;2023-08-08T03:03:59;46.54;36.20;61.68;;
4048;Laerm;2038;51.728;6.674;2023-08-08T03:06:25;43.47;34.69;62.16;;
4048;Laerm;2038;51.728;6.674;2023-08-08T03:08:51;44.48;35.36;62.33;;
4048;Laerm;2038;51.728;6.674;2023-08-08T03:11:18;39.82;34.31;44.11;;
4048;Laerm;2038;51.728;6.674;2023-08-08T03:13:44;43.99;36.69;60.25;;
4048;Laerm;2038;51.728;6.674;2023-08-08T03:16:10;39.56;35.66;43.14;;
4048;Laerm;2038;51.728;6.674;2023-08-08T03:18:36;39.81;36.45;42.30;;
4048;Laerm;2038;51.728;6.674;2023-08-08T03:21:02;46.34;37.12;60.44;;
4048;Laerm;2038;51.728;6.674;2023-08-08T03:23:29;42.09;36.91;58.52;;
4048;Laerm;2038;51.728;6.674;2023-08-08T03:25:55;47.90;37.32;67.53;;
4048;Laerm;2038;51.728;6.674;2023-08-08T03:28:21;40.68;36.91;44.51;;
4048;Laerm;2038;51.728;6.674;2023-08-08T03:30:47;45.17;38.05;61.12;;
4048;Laerm;2038;51.728;6.674;2023-08-08T03:33:14;46.70;37.88;64.04;;
4048;Laerm;2038;51.728;6.674;2023-08-08T03:35:40;47.55;37.52;59.72;;
4048;Laerm;2038;51.728;6.674;2023-08-08T03:38:06;40.75;36.91;48.03;;
4048;Laerm;2038;51.728;6.674;2023-08-08T03:40:33;44.52;37.52;57.65;;
4048;Laerm;2038;51.728;6.674;2023-08-08T03:42:59;49.20;37.70;63.67;;
4048;Laerm;2038;51.728;6.674;2023-08-08T03:45:26;47.59;38.81;61.85;;
4048;Laerm;2038;51.728;6.674;2023-08-08T03:47:52;47.80;39.08;58.66;;
4048;Laerm;2038;51.728;6.674;2023-08-08T03:50:18;43.54;38.05;59.64;;
4048;Laerm;2038;51.728;6.674;2023-08-08T03:52:45;49.22;38.67;63.12;;
4048;Laerm;2038;51.728;6.674;2023-08-08T03:55:11;46.48;37.88;57.08;;
4048;Laerm;2038;51.728;6.674;2023-08-08T03:57:37;46.58;37.52;62.31;;
4048;Laerm;2038;51.728;6.674;2023-08-08T04:00:04;45.79;38.05;63.20;;
4048;Laerm;2038;51.728;6.674;2023-08-08T04:02:33;42.71;37.52;53.69;;
4048;Laerm;2038;51.728;6.674;2023-08-08T04:04:59;43.87;37.52;57.24;;
4048;Laerm;2038;51.728;6.674;2023-08-08T04:07:25;49.26;38.37;68.49;;
4048;Laerm;2038;51.728;6.674;2023-08-08T04:09:51;48.49;38.05;60.03;;
4048;Laerm;2038;51.728;6.674;2023-08-08T04:12:18;42.21;37.70;55.02;;
4048;Laerm;2038;51.728;6.674;2023-08-08T04:14:44;48.59;37.32;64.54;;
4048;Laerm;2038;51.728;6.674;2023-08-08T04:17:10;45.42;37.88;61.19;;
4048;Laerm;2038;51.728;6.674;2023-08-08T04:19:36;48.05;38.18;59.56;;
4048;Laerm;2038;51.728;6.674;2023-08-08T04:22:03;50.48;38.52;65.63;;
4048;Laerm;2038;51.728;6.674;2023-08-08T04:24:29;45.34;37.70;58.97;;
4048;Laerm;2038;51.728;6.674;2023-08-08T04:26:55;47.27;36.45;61.74;;
4048;Laerm;2038;51.728;6.674;2023-08-08T04:29:22;49.22;37.88;60.67;;
4048;Laerm;2038;51.728;6.674;2023-08-08T04:31:48;49.39;38.05;65.94;;
4048;Laerm;2038;51.728;6.674;2023-08-08T04:34:14;48.89;38.37;62.84;;
4048;Laerm;2038;51.728;6.674;2023-08-08T04:36:41;48.18;37.52;62.78;;
4048;Laerm;2038;51.728;6.674;2023-08-08T04:39:07;46.53;38.37;61.37;;
4048;Laerm;2038;51.728;6.674;2023-08-08T04:41:33;46.35;36.91;61.65;;
4048;Laerm;2038;51.728;6.674;2023-08-08T04:43:59;47.85;37.32;59.00;;
4048;Laerm;2038;51.728;6.674;2023-08-08T04:46:25;46.47;37.70;62.81;;
4048;Laerm;2038;51.728;6.674;2023-08-08T04:48:52;50.32;38.52;62.83;;
4048;Laerm;2038;51.728;6.674;2023-08-08T04:51:18;48.19;38.52;58.65;;
4048;Laerm;2038;51.728;6.674;2023-08-08T04:53:44;48.72;38.67;63.35;;
4048;Laerm;2038;51.728;6.674;2023-08-08T04:56:10;47.53;38.05;63.67;;
4048;Laerm;2038;51.728;6.674;2023-08-08T04:58:37;48.32;38.67;61.77;;
4048;Laerm;2038;51.728;6.674;2023-08-08T05:01:04;48.22;38.37;65.39;;
4048;Laerm;2038;51.728;6.674;2023-08-08T05:03:30;47.33;38.37;58.62;;
4048;Laerm;2038;51.728;6.674;2023-08-08T05:05:56;45.36;38.67;56.30;;
4048;Laerm;2038;51.728;6.674;2023-08-08T05:08:25;48.62;38.81;60.35;;
4048;Laerm;2038;51.728;6.674;2023-08-08T05:10:52;49.69;38.52;61.31;;
4048;Laerm;2038;51.728;6.674;2023-08-08T05:13:18;49.02;39.21;61.45;;
4048;Laerm;2038;51.728;6.674;2023-08-08T05:15:44;48.68;38.81;59.28;;
4048;Laerm;2038;51.728;6.674;2023-08-08T05:18:10;45.13;38.37;58.88;;
4048;Laerm;2038;51.728;6.674;2023-08-08T05:20:36;49.92;38.67;60.28;;
4048;Laerm;2038;51.728;6.674;2023-08-08T05:23:03;49.02;39.08;62.51;;
4048;Laerm;2038;51.728;6.674;2023-08-08T05:25:29;46.87;38.37;62.09;;
4048;Laerm;2038;51.728;6.674;2023-08-08T05:27:55;50.17;38.05;63.25;;
4048;Laerm;2038;51.728;6.674;2023-08-08T05:30:22;49.20;38.81;60.00;;
4048;Laerm;2038;51.728;6.674;2023-08-08T05:32:48;47.58;38.21;59.67;;
4048;Laerm;2038;51.728;6.674;2023-08-08T05:35:14;42.58;37.88;57.14;;
4048;Laerm;2038;51.728;6.674;2023-08-08T05:37:41;49.89;39.58;63.86;;
4048;Laerm;2038;51.728;6.674;2023-08-08T05:40:07;49.53;39.11;59.79;;
4048;Laerm;2038;51.728;6.674;2023-08-08T05:42:34;49.20;38.37;59.02;;
4048;Laerm;2038;51.728;6.674;2023-08-08T05:45:00;48.16;39.70;59.81;;
4048;Laerm;2038;51.728;6.674;2023-08-08T05:47:26;48.79;38.95;60.88;;
4048;Laerm;2038;51.728;6.674;2023-08-08T05:49:53;48.92;39.08;58.53;;
4048;Laerm;2038;51.728;6.674;2023-08-08T05:52:19;48.40;38.21;58.12;;
4048;Laerm;2038;51.728;6.674;2023-08-08T05:54:47;47.95;38.52;59.82;;
4048;Laerm;2038;51.728;6.674;2023-08-08T05:57:13;62.27;38.81;83.82;;
4048;Laerm;2038;51.728;6.674;2023-08-08T05:59:39;47.54;39.21;61.37;;
4048;Laerm;2038;51.728;6.674;2023-08-08T06:02:05;46.64;39.70;56.99;;
4048;Laerm;2038;51.728;6.674;2023-08-08T06:04:32;48.97;39.34;59.17;;
4048;Laerm;2038;51.728;6.674;2023-08-08T06:06:58;48.17;39.58;62.61;;
4048;Laerm;2038;51.728;6.674;2023-08-08T06:09:25;44.58;38.37;55.70;;
4048;Laerm;2038;51.728;6.674;2023-08-08T06:11:51;47.08;38.52;58.93;;
4048;Laerm;2038;51.728;6.674;2023-08-08T06:14:18;46.29;38.81;57.59;;
4048;Laerm;2038;51.728;6.674;2023-08-08T06:16:44;48.56;38.67;61.75;;
4048;Laerm;2038;51.728;6.674;2023-08-08T06:19:10;45.75;37.35;59.95;;
4048;Laerm;2038;51.728;6.674;2023-08-08T06:21:37;50.14;39.08;65.23;;
4048;Laerm;2038;51.728;6.674;2023-08-08T06:24:04;48.67;39.58;60.96;;
4048;Laerm;2038;51.728;6.674;2023-08-08T06:26:30;46.99;39.70;60.75;;
4048;Laerm;2038;51.728;6.674;2023-08-08T06:28:56;50.20;38.52;64.35;;
4048;Laerm;2038;51.728;6.674;2023-08-08T06:31:22;46.27;38.67;58.25;;
4048;Laerm;2038;51.728;6.674;2023-08-08T06:33:49;48.11;39.70;60.19;;
4048;Laerm;2038;51.728;6.674;2023-08-08T06:36:15;46.78;38.21;58.14;;
4048;Laerm;2038;51.728;6.674;2023-08-08T06:38:41;46.93;38.52;57.28;;
4048;Laerm;2038;51.728;6.674;2023-08-08T06:41:08;45.42;37.70;57.81;;
4048;Laerm;2038;51.728;6.674;2023-08-08T06:43:35;48.27;39.89;58.36;;
4048;Laerm;2038;51.728;6.674;2023-08-08T06:46:01;51.10;40.03;63.86;;
4048;Laerm;2038;51.728;6.674;2023-08-08T06:48:27;48.02;38.74;58.13;;
4048;Laerm;2038;51.728;6.674;2023-08-08T06:50:53;43.67;38.21;55.73;;
4048;Laerm;2038;51.728;6.674;2023-08-08T06:53:20;49.00;39.08;58.94;;
4048;Laerm;2038;51.728;6.674;2023-08-08T06:55:46;46.36;39.58;56.73;;
4048;Laerm;2038;51.728;6.674;2023-08-08T06:58:12;46.92;39.21;60.32;;
4048;Laerm;2038;51.728;6.674;2023-08-08T07:00:38;46.85;37.88;59.26;;
4048;Laerm;2038;51.728;6.674;2023-08-08T07:03:05;49.38;39.58;62.60;;
4048;Laerm;2038;51.728;6.674;2023-08-08T07:05:32;43.78;36.91;54.68;;
4048;Laerm;2038;51.728;6.674;2023-08-08T07:07:58;46.75;38.21;57.09;;
4048;Laerm;2038;51.728;6.674;2023-08-08T07:10:24;47.81;38.95;58.81;;
4048;Laerm;2038;51.728;6.674;2023-08-08T07:12:51;50.30;39.58;70.80;;
4048;Laerm;2038;51.728;6.674;2023-08-08T07:15:18;47.00;39.46;56.89;;
4048;Laerm;2038;51.728;6.674;2023-08-08T07:17:44;47.90;39.46;61.16;;
4048;Laerm;2038;51.728;6.674;2023-08-08T07:20:10;50.39;42.59;60.08;;
4048;Laerm;2038;51.728;6.674;2023-08-08T07:22:39;48.71;40.33;58.93;;
4048;Laerm;2038;51.728;6.674;2023-08-08T07:25:06;48.59;39.81;59.00;;
4048;Laerm;2038;51.728;6.674;2023-08-08T07:27:33;50.59;39.89;65.49;;
4048;Laerm;2038;51.728;6.674;2023-08-08T07:29:59;48.50;40.23;60.03;;
4048;Laerm;2038;51.728;6.674;2023-08-08T07:32:27;49.21;39.92;61.44;;
4048;Laerm;2038;51.728;6.674;2023-08-08T07:34:53;48.05;38.81;56.18;;
4048;Laerm;2038;51.728;6.674;2023-08-08T07:37:19;48.98;41.89;61.89;;
4048;Laerm;2038;51.728;6.674;2023-08-08T07:39:45;51.72;43.63;62.39;;
4048;Laerm;2038;51.728;6.674;2023-08-08T07:42:11;48.02;38.05;61.80;;
4048;Laerm;2038;51.728;6.674;2023-08-08T07:44:38;47.30;38.81;55.81;;
4048;Laerm;2038;51.728;6.674;2023-08-08T07:47:05;51.61;39.57;63.46;;
4048;Laerm;2038;51.728;6.674;2023-08-08T07:49:31;51.36;42.03;63.41;;
4048;Laerm;2038;51.728;6.674;2023-08-08T07:51:57;53.49;40.03;74.56;;
4048;Laerm;2038;51.728;6.674;2023-08-08T07:54:24;48.71;39.58;63.83;;
4048;Laerm;2038;51.728;6.674;2023-08-08T07:56:50;49.80;39.21;64.62;;
4048;Laerm;2038;51.728;6.674;2023-08-08T07:59:16;50.46;41.53;62.44;;
4048;Laerm;2038;51.728;6.674;2023-08-08T08:01:42;52.92;39.34;69.25;;
4048;Laerm;2038;51.728;6.674;2023-08-08T08:04:09;50.29;42.09;62.76;;
4048;Laerm;2038;51.728;6.674;2023-08-08T08:06:35;50.85;42.93;65.44;;
4048;Laerm;2038;51.728;6.674;2023-08-08T08:09:02;49.54;38.67;60.02;;
4048;Laerm;2038;51.728;6.674;2023-08-08T08:11:29;52.14;41.75;63.20;;
4048;Laerm;2038;51.728;6.674;2023-08-08T08:13:56;51.15;42.65;65.29;;
4048;Laerm;2038;51.728;6.674;2023-08-08T08:16:22;51.62;44.23;64.79;;
4048;Laerm;2038;51.728;6.674;2023-08-08T08:18:48;50.30;42.47;62.61;;
4048;Laerm;2038;51.728;6.674;2023-08-08T08:21:14;50.58;41.30;67.26;;
4048;Laerm;2038;51.728;6.674;2023-08-08T08:23:43;48.63;39.21;58.67;;
4048;Laerm;2038;51.728;6.674;2023-08-08T08:26:10;53.01;42.22;68.25;;
4048;Laerm;2038;51.728;6.674;2023-08-08T08:28:36;51.14;42.19;64.29;;
4048;Laerm;2038;51.728;6.674;2023-08-08T08:31:07;51.39;41.26;64.09;;
4048;Laerm;2038;51.728;6.674;2023-08-08T08:33:34;49.99;42.35;58.22;;
4048;Laerm;2038;51.728;6.674;2023-08-08T08:36:01;49.53;42.65;61.76;;
4048;Laerm;2038;51.728;6.674;2023-08-08T08:38:27;48.85;39.21;59.59;;
4048;Laerm;2038;51.728;6.674;2023-08-08T08:40:56;53.41;41.82;69.13;;
4048;Laerm;2038;51.728;6.674;2023-08-08T08:43:22;49.25;42.29;58.51;;
4048;Laerm;2038;51.728;6.674;2023-08-08T08:45:52;49.94;39.34;60.92;;
4048;Laerm;2038;51.728;6.674;2023-08-08T08:48:21;47.07;40.62;57.63;;
4048;Laerm;2038;51.728;6.674;2023-08-08T08:50:49;49.42;40.08;66.98;;
4048;Laerm;2038;51.728;6.674;2023-08-08T08:53:15;49.18;41.22;60.75;;
4048;Laerm;2038;51.728;6.674;2023-08-08T08:55:44;50.75;40.03;69.18;;
4048;Laerm;2038;51.728;6.674;2023-08-08T08:58:14;50.62;41.22;62.14;;
4048;Laerm;2038;51.728;6.674;2023-08-08T09:00:41;49.44;39.58;60.69;;
4048;Laerm;2038;51.728;6.674;2023-08-08T09:03:09;51.19;41.96;61.08;;
4048;Laerm;2038;51.728;6.674;2023-08-08T09:05:36;53.60;41.22;70.31;;
4048;Laerm;2038;51.728;6.674;2023-08-08T09:08:04;48.38;40.03;57.72;;
4048;Laerm;2038;51.728;6.674;2023-08-08T09:10:32;48.93;38.52;59.33;;
4048;Laerm;2038;51.728;6.674;2023-08-08T09:12:58;51.35;41.22;61.92;;
4048;Laerm;2038;51.728;6.674;2023-08-08T09:15:25;51.98;42.35;61.33;;
4048;Laerm;2038;51.728;6.674;2023-08-08T09:17:52;50.84;44.80;64.81;;
4048;Laerm;2038;51.728;6.674;2023-08-08T09:20:18;53.35;43.72;64.12;;
4048;Laerm;2038;51.728;6.674;2023-08-08T09:22:45;49.19;42.29;61.94;;
4048;Laerm;2038;51.728;6.674;2023-08-08T09:25:11;49.73;41.22;61.74;;
4048;Laerm;2038;51.728;6.674;2023-08-08T09:27:38;49.12;40.98;60.91;;
4048;Laerm;2038;51.728;6.674;2023-08-08T09:30:05;54.18;44.07;69.49;;
4048;Laerm;2038;51.728;6.674;2023-08-08T09:32:32;53.45;43.72;67.24;;
4048;Laerm;2038;51.728;6.674;2023-08-08T09:34:59;51.14;42.93;60.54;;
4048;Laerm;2038;51.728;6.674;2023-08-08T09:37:27;50.33;38.52;61.43;;
4048;Laerm;2038;51.728;6.674;2023-08-08T09:40:03;48.38;40.03;58.64;;
4048;Laerm;2038;51.728;6.674;2023-08-08T09:42:31;47.73;39.92;58.50;;
4048;Laerm;2038;51.728;6.674;2023-08-08T09:44:59;51.60;40.43;61.17;;
4048;Laerm;2038;51.728;6.674;2023-08-08T09:47:25;47.62;41.53;60.26;;
4048;Laerm;2038;51.728;6.674;2023-08-08T09:50:02;49.43;40.89;60.97;;
4048;Laerm;2038;51.728;6.674;2023-08-08T09:52:34;52.74;40.13;63.53;;
4048;Laerm;2038;51.728;6.674;2023-08-08T09:55:02;55.61;47.59;67.74;;
4048;Laerm;2038;51.728;6.674;2023-08-08T09:57:29;48.40;41.22;60.21;;
4048;Laerm;2038;51.728;6.674;2023-08-08T09:59:57;47.98;39.34;57.36;;
4048;Laerm;2038;51.728;6.674;2023-08-08T10:02:23;46.87;38.81;57.65;;
4048;Laerm;2038;51.728;6.674;2023-08-08T10:04:50;51.63;42.71;66.27;;
4048;Laerm;2038;51.728;6.674;2023-08-08T10:07:18;51.41;43.14;66.45;;
4048;Laerm;2038;51.728;6.674;2023-08-08T10:09:44;52.85;42.59;67.34;;
4048;Laerm;2038;51.728;6.674;2023-08-08T10:12:12;53.16;45.48;62.60;;
4048;Laerm;2038;51.728;6.674;2023-08-08T10:14:42;51.74;41.82;65.94;;
4048;Laerm;2038;51.728;6.674;2023-08-08T10:17:13;51.71;42.03;63.50;;
4048;Laerm;2038;51.728;6.674;2023-08-08T10:19:48;56.69;45.07;70.17;;
4048;Laerm;2038;51.728;6.674;2023-08-08T10:22:20;50.75;44.31;60.17;;
4048;Laerm;2038;51.728;6.674;2023-08-08T10:24:53;49.30;40.71;61.22;;
4048;Laerm;2038;51.728;6.674;2023-08-08T10:27:33;51.14;42.53;61.68;;
4048;Laerm;2038;51.728;6.674;2023-08-08T10:30:08;53.20;45.23;60.90;;
4048;Laerm;2038;51.728;6.674;2023-08-08T10:32:45;51.86;45.04;59.32;;
4048;Laerm;2038;51.728;6.674;2023-08-08T10:35:14;50.46;40.03;63.56;;
4048;Laerm;2038;51.728;6.674;2023-08-08T10:37:51;49.94;41.68;62.19;;
4048;Laerm;2038;51.728;6.674;2023-08-08T10:40:19;52.23;44.65;65.07;;
4048;Laerm;2038;51.728;6.674;2023-08-08T10:42:47;51.41;42.09;65.11;;
4048;Laerm;2038;51.728;6.674;2023-08-08T10:45:15;51.96;41.96;69.51;;
4048;Laerm;2038;51.728;6.674;2023-08-08T10:47:43;51.13;42.65;68.68;;
4048;Laerm;2038;51.728;6.674;2023-08-08T10:50:14;53.00;44.98;65.88;;
4048;Laerm;2038;51.728;6.674;2023-08-08T10:55:39;47.87;39.08;67.03;;
4048;Laerm;2038;51.728;6.674;2023-08-08T10:58:12;49.90;40.53;59.54;;
4048;Laerm;2038;51.728;6.674;2023-08-08T11:00:41;49.40;40.89;64.46;;
4048;Laerm;2038;51.728;6.674;2023-08-08T11:03:08;49.84;41.82;65.80;;
4048;Laerm;2038;51.728;6.674;2023-08-08T11:05:37;48.86;41.38;63.40;;
4048;Laerm;2038;51.728;6.674;2023-08-08T11:08:06;55.58;43.29;67.44;;
4048;Laerm;2038;51.728;6.674;2023-08-08T11:10:56;57.31;48.13;69.25;;
4048;Laerm;2038;51.728;6.674;2023-08-08T11:13:22;53.31;43.34;64.97;;
4048;Laerm;2038;51.728;6.674;2023-08-08T11:15:48;53.91;45.48;60.37;;
4048;Laerm;2038;51.728;6.674;2023-08-08T11:18:15;51.95;43.49;60.39;;
4048;Laerm;2038;51.728;6.674;2023-08-08T11:20:41;52.95;42.35;64.28;;
4048;Laerm;2038;51.728;6.674;2023-08-08T11:23:09;48.91;42.71;57.47;;
4048;Laerm;2038;51.728;6.674;2023-08-08T11:25:40;50.36;42.53;59.04;;
4048;Laerm;2038;51.728;6.674;2023-08-08T11:28:09;52.18;42.16;65.46;;
4048;Laerm;2038;51.728;6.674;2023-08-08T11:30:39;50.56;40.71;65.63;;
4048;Laerm;2038;51.728;6.674;2023-08-08T11:33:06;49.75;40.43;61.07;;
4048;Laerm;2038;51.728;6.674;2023-08-08T11:35:33;51.00;40.98;62.81;;
4048;Laerm;2038;51.728;6.674;2023-08-08T11:38:02;49.43;40.62;63.93;;
4048;Laerm;2038;51.728;6.674;2023-08-08T11:40:31;49.23;41.06;61.12;;
4048;Laerm;2038;51.728;6.674;2023-08-08T11:42:58;51.53;42.41;65.05;;
4048;Laerm;2038;51.728;6.674;2023-08-08T11:45:25;49.95;43.04;61.20;;
4048;Laerm;2038;51.728;6.674;2023-08-08T11:47:53;50.76;42.16;62.90;;
4048;Laerm;2038;51.728;6.674;2023-08-08T11:50:23;50.49;41.30;64.95;;
4048;Laerm;2038;51.728;6.674;2023-08-08T11:52:53;49.33;40.80;59.07;;
4048;Laerm;2038;51.728;6.674;2023-08-08T11:55:27;49.66;40.33;61.50;;
4048;Laerm;2038;51.728;6.674;2023-08-08T11:57:57;44.28;38.05;57.13;;
4048;Laerm;2038;51.728;6.674;2023-08-08T12:00:29;49.65;41.06;59.20;;
4048;Laerm;2038;51.728;6.674;2023-08-08T12:03:01;53.87;43.72;68.29;;
4048;Laerm;2038;51.728;6.674;2023-08-08T12:05:27;48.10;40.89;59.22;;
4048;Laerm;2038;51.728;6.674;2023-08-08T12:07:54;49.26;40.23;60.82;;
4048;Laerm;2038;51.728;6.674;2023-08-08T12:10:23;56.44;45.54;70.48;;
4048;Laerm;2038;51.728;6.674;2023-08-08T12:12:57;56.19;47.79;71.27;;
4048;Laerm;2038;51.728;6.674;2023-08-08T12:15:33;53.88;43.29;65.07;;
4048;Laerm;2038;51.728;6.674;2023-08-08T12:18:03;49.94;40.33;59.89;;
4048;Laerm;2038;51.728;6.674;2023-08-08T12:20:30;48.80;40.13;60.19;;
4048;Laerm;2038;51.728;6.674;2023-08-08T12:22:58;50.16;41.82;62.49;;
4048;Laerm;2038;51.728;6.674;2023-08-08T12:25:25;50.68;41.30;64.58;;
4048;Laerm;2038;51.728;6.674;2023-08-08T12:27:51;50.80;41.22;62.98;;
4048;Laerm;2038;51.728;6.674;2023-08-08T12:30:17;53.08;45.45;63.65;;
4048;Laerm;2038;51.728;6.674;2023-08-08T12:32:43;53.82;41.68;70.57;;
4048;Laerm;2038;51.728;6.674;2023-08-08T12:35:10;51.90;42.42;64.89;;
4048;Laerm;2038;51.728;6.674;2023-08-08T12:37:36;50.87;42.29;67.26;;
4048;Laerm;2038;51.728;6.674;2023-08-08T12:40:03;50.99;44.83;62.76;;
4048;Laerm;2038;51.728;6.674;2023-08-08T12:42:29;50.63;42.09;62.12;;
4048;Laerm;2038;51.728;6.674;2023-08-08T12:44:55;50.85;43.29;65.13;;
4048;Laerm;2038;51.728;6.674;2023-08-08T12:47:21;48.90;40.98;66.18;;
4048;Laerm;2038;51.728;6.674;2023-08-08T12:49:48;55.09;42.53;65.86;;
4048;Laerm;2038;51.728;6.674;2023-08-08T12:52:14;50.26;40.13;62.96;;
4048;Laerm;2038;51.728;6.674;2023-08-08T12:54:40;51.92;43.19;63.89;;
4048;Laerm;2038;51.728;6.674;2023-08-08T12:57:07;51.80;43.63;63.09;;
4048;Laerm;2038;51.728;6.674;2023-08-08T12:59:33;50.28;40.43;62.92;;
4048;Laerm;2038;51.728;6.674;2023-08-08T13:01:59;52.96;41.14;63.56;;
4048;Laerm;2038;51.728;6.674;2023-08-08T13:04:25;53.44;43.89;64.91;;
4048;Laerm;2038;51.728;6.674;2023-08-08T13:06:52;52.75;44.07;63.46;;
4048;Laerm;2038;51.728;6.674;2023-08-08T13:09:18;54.35;46.18;66.13;;
4048;Laerm;2038;51.728;6.674;2023-08-08T13:11:44;53.23;45.27;71.09;;
4048;Laerm;2038;51.728;6.674;2023-08-08T13:14:11;53.17;44.80;63.28;;
4048;Laerm;2038;51.728;6.674;2023-08-08T13:16:37;51.24;43.90;60.99;;
4048;Laerm;2038;51.728;6.674;2023-08-08T13:19:03;53.58;44.35;66.35;;
4048;Laerm;2038;51.728;6.674;2023-08-08T13:21:31;52.89;45.72;68.22;;
4048;Laerm;2038;51.728;6.674;2023-08-08T13:23:57;54.54;44.62;72.70;;
4048;Laerm;2038;51.728;6.674;2023-08-08T13:26:24;49.92;41.33;57.76;;
4048;Laerm;2038;51.728;6.674;2023-08-08T13:28:50;58.56;42.76;81.43;;
4048;Laerm;2038;51.728;6.674;2023-08-08T13:31:17;52.92;40.98;68.16;;
4048;Laerm;2038;51.728;6.674;2023-08-08T13:33:43;56.22;42.47;71.12;;
4048;Laerm;2038;51.728;6.674;2023-08-08T13:36:09;46.80;41.30;56.56;;
4048;Laerm;2038;51.728;6.674;2023-08-08T13:38:35;54.14;44.39;66.56;;
4048;Laerm;2038;51.728;6.674;2023-08-08T13:41:02;55.23;44.80;67.88;;
4048;Laerm;2038;51.728;6.674;2023-08-08T13:43:28;53.13;43.72;64.88;;
4048;Laerm;2038;51.728;6.674;2023-08-08T13:45:56;49.39;41.61;57.48;;
4048;Laerm;2038;51.728;6.674;2023-08-08T13:48:22;48.46;42.29;57.82;;
4048;Laerm;2038;51.728;6.674;2023-08-08T13:50:49;47.41;40.03;56.76;;
4048;Laerm;2038;51.728;6.674;2023-08-08T13:53:16;51.30;42.29;59.72;;
4048;Laerm;2038;51.728;6.674;2023-08-08T13:55:42;47.65;39.81;57.62;;
4048;Laerm;2038;51.728;6.674;2023-08-08T13:58:10;47.40;40.62;57.69;;
4048;Laerm;2038;51.728;6.674;2023-08-08T14:00:36;45.02;39.08;54.22;;
4048;Laerm;2038;51.728;6.674;2023-08-08T14:03:03;48.31;40.80;66.33;;
4048;Laerm;2038;51.728;6.674;2023-08-08T14:05:30;53.92;43.29;65.59;;
4048;Laerm;2038;51.728;6.674;2023-08-08T14:07:57;50.49;42.47;64.14;;
4048;Laerm;2038;51.728;6.674;2023-08-08T14:10:23;50.38;39.92;62.61;;
4048;Laerm;2038;51.728;6.674;2023-08-08T14:12:49;49.32;39.70;59.34;;